LZB977 LBSF-LBWN

Flight info

Callsign LZB977
Flight time 0h 36m
Altitude 27000
Route UMPIT T343 DICXA
Aircraft A320/M-SDE3FGHIRWY/LB1

Departure

Time 2026-05-05 14:10
Airport Sofia Airport (LBSF)

Arrival

Time 2026-05-05 14:46
Airport Varna Airport (LBWN)
Time Latitude Longitude Altitude Speed Heading
2026-05-05 13:34 42.69132 23.40039 1765 ft 0 kts 197°
2026-05-05 13:58 42.69123 23.40035 1765 ft 2 kts 197°
2026-05-05 13:58 42.69101 23.40023 1765 ft 4 kts 215°
2026-05-05 13:58 42.69091 23.39980 1765 ft 5 kts 267°
2026-05-05 13:58 42.69095 23.39917 1765 ft 7 kts 282°
2026-05-05 13:59 42.69130 23.39757 1765 ft 9 kts 286°
2026-05-05 13:59 42.69150 23.39663 1765 ft 10 kts 287°
2026-05-05 14:00 42.69257 23.39550 1765 ft 11 kts
2026-05-05 14:00 42.69313 23.39557 1765 ft 12 kts
2026-05-05 14:00 42.69439 23.39572 1764 ft 14 kts
2026-05-05 14:00 42.69539 23.39581 1764 ft 14 kts
2026-05-05 14:01 42.69640 23.39591 1764 ft 11 kts
2026-05-05 14:01 42.69655 23.39593 1764 ft 0 kts
2026-05-05 14:09 42.69687 23.39599 1764 ft 11 kts
2026-05-05 14:09 42.69770 23.39693 1764 ft 23 kts 91°
2026-05-05 14:09 42.69754 23.39947 1764 ft 33 kts 95°
2026-05-05 14:09 42.69718 23.40586 1764 ft 102 kts 96°
2026-05-05 14:10 42.69643 23.41833 1765 ft 160 kts 92°
2026-05-05 14:10 42.69566 23.43446 2113 ft 176 kts 92°
2026-05-05 14:10 42.69459 23.45094 2739 ft 178 kts 93°
2026-05-05 14:10 42.69364 23.46735 3455 ft 178 kts 92°
2026-05-05 14:11 42.69376 23.48442 4004 ft 189 kts 80°
2026-05-05 14:11 42.69651 23.50245 4490 ft 205 kts 75°
2026-05-05 14:11 42.70005 23.52205 4977 ft 222 kts 75°
2026-05-05 14:11 42.70379 23.54330 5409 ft 244 kts 76°
2026-05-05 14:12 42.70771 23.56665 5952 ft 262 kts 76°
2026-05-05 14:12 42.71167 23.59108 6632 ft 274 kts 76°
2026-05-05 14:12 42.71569 23.61639 7517 ft 277 kts 76°
2026-05-05 14:12 42.71966 23.64176 8397 ft 280 kts 76°
2026-05-05 14:13 42.72374 23.66800 9247 ft 284 kts 77°
2026-05-05 14:13 42.72777 23.69415 10077 ft 289 kts 77°
2026-05-05 14:13 42.73192 23.72111 10761 ft 299 kts 76°
2026-05-05 14:13 42.73629 23.74940 11191 ft 316 kts 76°
2026-05-05 14:14 42.74099 23.77984 11586 ft 335 kts 76°
2026-05-05 14:14 42.74589 23.81167 11991 ft 352 kts 76°
2026-05-05 14:14 42.75091 23.84450 12642 ft 359 kts 76°
2026-05-05 14:14 42.75598 23.87782 13456 ft 361 kts 76°
2026-05-05 14:15 42.76105 23.91121 14237 ft 364 kts 76°
2026-05-05 14:15 42.76616 23.94488 14986 ft 367 kts 76°
2026-05-05 14:15 42.77126 23.97856 15705 ft 369 kts 76°
2026-05-05 14:15 42.77645 24.01291 16415 ft 372 kts 75°
2026-05-05 14:16 42.78166 24.04740 17094 ft 375 kts 75°
2026-05-05 14:16 42.78688 24.08198 17745 ft 379 kts 75°
2026-05-05 14:16 42.79218 24.11717 18384 ft 382 kts 75°
2026-05-05 14:16 42.79747 24.15249 18974 ft 386 kts 75°
2026-05-05 14:17 42.80289 24.18856 19552 ft 390 kts 75°
2026-05-05 14:17 42.80828 24.22462 20108 ft 394 kts 75°
2026-05-05 14:17 42.81374 24.26120 20672 ft 398 kts 75°
2026-05-05 14:17 42.81923 24.29812 21232 ft 401 kts 74°
2026-05-05 14:18 42.82477 24.33548 21770 ft 405 kts 74°
2026-05-05 14:18 42.83034 24.37316 22302 ft 408 kts 74°
2026-05-05 14:18 42.83599 24.41141 22825 ft 412 kts 74°
2026-05-05 14:18 42.84162 24.44965 23320 ft 415 kts 74°
2026-05-05 14:19 42.84728 24.48824 23814 ft 419 kts 74°
2026-05-05 14:19 42.85298 24.52712 24291 ft 422 kts 74°
2026-05-05 14:19 42.85869 24.56625 24725 ft 426 kts 74°
2026-05-05 14:19 42.86446 24.60582 25156 ft 429 kts 74°
2026-05-05 14:20 42.87026 24.64569 25576 ft 432 kts 74°
2026-05-05 14:20 42.87611 24.68620 25982 ft 435 kts 75°
2026-05-05 14:20 42.88195 24.72681 26383 ft 438 kts 75°
2026-05-05 14:20 42.88775 24.76726 26775 ft 440 kts 75°
2026-05-05 14:21 42.89365 24.80840 27039 ft 443 kts 75°
2026-05-05 14:21 42.89955 24.84964 27058 ft 442 kts 75°
2026-05-05 14:21 42.90540 24.89063 27062 ft 442 kts 75°
2026-05-05 14:21 42.91127 24.93177 27060 ft 442 kts 75°
2026-05-05 14:22 42.91705 24.97244 27059 ft 442 kts 75°
2026-05-05 14:22 42.92291 25.01368 27060 ft 442 kts 75°
2026-05-05 14:22 42.92871 25.05477 27054 ft 442 kts 75°
2026-05-05 14:22 42.93418 25.09344 27054 ft 442 kts 75°
2026-05-05 14:23 42.93996 25.13460 27052 ft 442 kts 75°
2026-05-05 14:23 42.94571 25.17549 27054 ft 442 kts 75°
2026-05-05 14:23 42.95144 25.21649 27050 ft 442 kts 75°
2026-05-05 14:23 42.95723 25.25793 27048 ft 442 kts 75°
2026-05-05 14:24 42.96295 25.29904 27051 ft 442 kts 75°
2026-05-05 14:24 42.96862 25.33986 27040 ft 441 kts 75°
2026-05-05 14:24 42.97434 25.38119 27039 ft 441 kts 75°
2026-05-05 14:24 42.98002 25.42235 27040 ft 441 kts 75°
2026-05-05 14:25 42.98566 25.46332 27041 ft 441 kts 75°
2026-05-05 14:25 42.99126 25.50413 27036 ft 440 kts 75°
2026-05-05 14:25 42.99691 25.54540 27033 ft 440 kts 75°
2026-05-05 14:25 43.00250 25.58635 27028 ft 440 kts 75°
2026-05-05 14:26 43.00803 25.62701 27028 ft 440 kts 75°
2026-05-05 14:26 43.01362 25.66807 27029 ft 440 kts 76°
2026-05-05 14:26 43.01915 25.70915 27021 ft 440 kts 76°
2026-05-05 14:26 43.02474 25.75077 27020 ft 440 kts 76°
2026-05-05 14:27 43.03022 25.79161 26891 ft 434 kts 76°
2026-05-05 14:27 43.03561 25.83199 26347 ft 431 kts 76°
2026-05-05 14:27 43.04098 25.87210 25644 ft 428 kts 76°
2026-05-05 14:27 43.04625 25.91145 25007 ft 425 kts 76°
2026-05-05 14:28 43.05150 25.95102 24392 ft 420 kts 76°
2026-05-05 14:28 43.05669 25.99016 23791 ft 415 kts 76°
2026-05-05 14:28 43.06177 26.02853 23205 ft 411 kts 76°
2026-05-05 14:28 43.06683 26.06680 22620 ft 407 kts 76°
2026-05-05 14:29 43.07178 26.10449 22038 ft 403 kts 76°
2026-05-05 14:29 43.07672 26.14215 21459 ft 399 kts 76°
2026-05-05 14:29 43.08158 26.17926 20885 ft 395 kts 76°
2026-05-05 14:29 43.08635 26.21586 20316 ft 392 kts 76°
2026-05-05 14:30 43.09111 26.25245 19741 ft 388 kts 76°
2026-05-05 14:30 43.09578 26.28829 19169 ft 384 kts 76°
2026-05-05 14:30 43.10043 26.32410 18597 ft 381 kts 76°
2026-05-05 14:30 43.10513 26.35978 18006 ft 379 kts 76°
2026-05-05 14:31 43.10982 26.39509 17435 ft 375 kts 76°
2026-05-05 14:31 43.11443 26.43017 16908 ft 371 kts 76°
2026-05-05 14:31 43.11887 26.46433 16382 ft 368 kts 76°
2026-05-05 14:31 43.12330 26.49870 15836 ft 364 kts 76°
2026-05-05 14:32 43.12764 26.53244 15314 ft 361 kts 76°
2026-05-05 14:32 43.13198 26.56643 14773 ft 357 kts 76°
2026-05-05 14:32 43.13616 26.59924 14240 ft 354 kts 76°
2026-05-05 14:32 43.14037 26.63235 13688 ft 352 kts 76°
2026-05-05 14:33 43.14451 26.66512 13104 ft 351 kts 77°
2026-05-05 14:33 43.14870 26.69852 12212 ft 358 kts 77°
2026-05-05 14:33 43.15288 26.73174 11497 ft 359 kts 77°
2026-05-05 14:33 43.15710 26.76555 10879 ft 357 kts 77°
2026-05-05 14:34 43.16123 26.79865 10482 ft 349 kts 76°
2026-05-05 14:34 43.16517 26.83053 10309 ft 335 kts 76°
2026-05-05 14:34 43.16900 26.86156 10180 ft 320 kts 76°
2026-05-05 14:34 43.17260 26.89078 10079 ft 305 kts 76°
2026-05-05 14:35 43.17603 26.91858 10007 ft 291 kts 76°
2026-05-05 14:35 43.17933 26.94544 9747 ft 284 kts 75°
2026-05-05 14:35 43.18261 26.97186 9456 ft 279 kts 75°
2026-05-05 14:35 43.18586 26.99800 9078 ft 278 kts 76°
2026-05-05 14:36 43.18907 27.02382 8706 ft 276 kts 76°
2026-05-05 14:36 43.19224 27.04951 8365 ft 273 kts 76°
2026-05-05 14:36 43.19539 27.07515 8041 ft 270 kts 76°
2026-05-05 14:36 43.19848 27.10043 7705 ft 268 kts 76°
2026-05-05 14:37 43.20150 27.12518 7389 ft 266 kts 76°
2026-05-05 14:37 43.20454 27.15012 7080 ft 264 kts 76°
2026-05-05 14:37 43.20756 27.17488 6768 ft 261 kts 76°
2026-05-05 14:37 43.21052 27.19928 6456 ft 259 kts 76°
2026-05-05 14:38 43.21347 27.22363 6163 ft 258 kts 76°
2026-05-05 14:38 43.21639 27.24758 5876 ft 256 kts 76°
2026-05-05 14:38 43.21928 27.27146 5592 ft 254 kts 77°
2026-05-05 14:38 43.22215 27.29524 5306 ft 252 kts 77°
2026-05-05 14:39 43.22501 27.31896 5025 ft 250 kts 77°
2026-05-05 14:39 43.22778 27.34211 4761 ft 248 kts 77°
2026-05-05 14:39 43.23055 27.36528 4480 ft 246 kts 78°
2026-05-05 14:39 43.23333 27.38852 4194 ft 245 kts 78°
2026-05-05 14:40 43.23605 27.41131 3917 ft 244 kts 78°
2026-05-05 14:40 43.23880 27.43445 3637 ft 242 kts 78°
2026-05-05 14:40 43.24148 27.45700 3363 ft 241 kts 79°
2026-05-05 14:40 43.24419 27.47979 3094 ft 241 kts 79°
2026-05-05 14:41 43.24685 27.50228 2990 ft 237 kts 79°
2026-05-05 14:41 43.24941 27.52408 2977 ft 222 kts 79°
2026-05-05 14:41 43.25177 27.54430 2975 ft 207 kts 79°
2026-05-05 14:41 43.25380 27.56326 2979 ft 201 kts 83°
2026-05-05 14:42 43.25364 27.58230 2973 ft 195 kts 92°
2026-05-05 14:42 43.25237 27.60014 2956 ft 182 kts 94°
2026-05-05 14:42 43.25081 27.61746 2887 ft 183 kts 95°
2026-05-05 14:42 43.24918 27.63481 2700 ft 180 kts 95°
2026-05-05 14:43 43.24758 27.65188 2507 ft 181 kts 96°
2026-05-05 14:43 43.24605 27.66850 2263 ft 169 kts 96°
2026-05-05 14:43 43.24462 27.68428 2020 ft 167 kts 96°
2026-05-05 14:43 43.24318 27.70009 1805 ft 166 kts 97°
2026-05-05 14:44 43.24179 27.71549 1561 ft 157 kts 97°
2026-05-05 14:44 43.24050 27.72987 1332 ft 142 kts 97°
2026-05-05 14:44 43.23936 27.74256 1139 ft 129 kts 97°
2026-05-05 14:44 43.23824 27.75481 991 ft 128 kts 98°
2026-05-05 14:45 43.23717 27.76684 837 ft 128 kts 97°
2026-05-05 14:45 43.23610 27.77904 672 ft 127 kts 98°
2026-05-05 14:45 43.23499 27.79094 505 ft 127 kts 98°
2026-05-05 14:45 43.23400 27.80297 340 ft 126 kts 98°
2026-05-05 14:46 43.23287 27.81482 227 ft 124 kts 99°
2026-05-05 14:46 43.23190 27.82542 237 ft 93 kts 97°
2026-05-05 14:46 43.23130 27.83274 243 ft 59 kts 93°
2026-05-05 14:46 43.23085 27.83771 236 ft 47 kts 97°
2026-05-05 14:47 43.23148 27.84075 232 ft 29 kts 33°
2026-05-05 14:47 43.23283 27.84049 234 ft 17 kts 320°
2026-05-05 14:47 43.23323 27.83918 238 ft 13 kts 278°
2026-05-05 14:47 43.23336 27.83802 240 ft 11 kts 273°
2026-05-05 14:48 43.23342 27.83697 242 ft 10 kts 276°
2026-05-05 14:48 43.23351 27.83599 244 ft 11 kts 277°
2026-05-05 14:48 43.23363 27.83468 246 ft 15 kts 278°
2026-05-05 14:48 43.23381 27.83311 248 ft 16 kts 300°
2026-05-05 14:49 43.23472 27.83205 249 ft 16 kts 322°
2026-05-05 14:49 43.23546 27.83094 250 ft 16 kts 288°
2026-05-05 14:49 43.23540 27.82935 248 ft 17 kts 255°
2026-05-05 14:49 43.23541 27.82766 244 ft 14 kts 276°
2026-05-05 14:50 43.23552 27.82638 242 ft 14 kts 276°
2026-05-05 14:50 43.23576 27.82571 241 ft 3 kts
2026-05-05 14:50 43.23587 27.82596 242 ft 3 kts 68°
2026-05-05 14:50 43.23597 27.82626 243 ft 3 kts 61°
2026-05-05 14:51 43.23601 27.82636 244 ft 2 kts 58°
2026-05-05 14:51 43.23606 27.82647 245 ft 1 kts 58°
2026-05-05 14:51 43.23608 27.82653 245 ft 0 kts 58°
2026-05-05 14:51 43.23607 27.82648 245 ft 0 kts 58°
2026-05-05 15:17 43.23606 27.82647 245 ft 0 kts 57°
2026-05-05 15:18 43.23605 27.82644 244 ft 2 kts 57°
2026-05-05 15:18 43.23610 27.82659 246 ft 7 kts 71°
2026-05-05 15:18 43.23572 27.82675 243 ft 9 kts 172°
2026-05-05 15:18 43.23544 27.82751 244 ft 10 kts 92°
2026-05-05 15:19 43.23539 27.82846 246 ft 10 kts 95°
2026-05-05 15:19 43.23547 27.82949 248 ft 11 kts 62°
2026-05-05 15:19 43.23552 27.83057 250 ft 12 kts 97°
2026-05-05 15:19 43.23510 27.83166 250 ft 17 kts 142°
2026-05-05 15:20 43.23389 27.83311 248 ft 24 kts 114°
2026-05-05 15:20 43.23358 27.83534 245 ft 23 kts 97°
2026-05-05 15:20 43.23337 27.83761 241 ft 24 kts 97°
2026-05-05 15:20 43.23312 27.83997 236 ft 25 kts 113°
2026-05-05 15:21 43.23166 27.84090 231 ft 24 kts 199°
2026-05-05 15:21 43.23071 27.83927 233 ft 17 kts 271°
2026-05-05 15:21 43.23072 27.83895 233 ft 0 kts 275°